Time;durP1;ratioP1;P1;durP2;ratioP2;P2;SDS_P1;SDS_P2;PMS_P1;PMS_P2;Temp;Humidity;BMP_temperature;BMP_pressure;BME280_temperature;BME280_humidity;BME280_pressure;Samples;Min_cycle;Max_cycle;Signal;HPM_P1;HPM_P2
2022/12/06 00:01:43;;;;;;;;;;;;;;;;;;5064286;28;19924;-61
2022/12/06 00:04:10;;;;;;;;;;;;;;;;;;5053014;28;19923;-62
2022/12/06 00:06:40;;;;;;;;;;;;;;;;;;5042903;28;19916;-62
2022/12/06 00:09:06;;;;;;;;;;;;;;;;;;5042793;28;19930;-62
2022/12/06 00:11:31;;;;;;;;;;;;;;;;;;5055814;28;19924;-63
2022/12/06 00:13:56;;;;;;;;;;;;;;;;;;4975533;28;19920;-62
2022/12/06 00:16:21;;;;;;;;;;;;;;;;;;4974183;28;19964;-63
2022/12/06 00:18:49;;;;;;;;;;;;;;;;;;4959357;28;19920;-67
2022/12/06 00:21:17;;;;;;;;;;;;;;;;;;5062413;28;20390;-62
2022/12/06 00:23:42;;;;;;;;;;;;;;;;;;4977368;28;19923;-62
2022/12/06 00:26:07;;;;;;;;;;;;;;;;;;4975352;28;20600;-62
2022/12/06 00:28:33;;;;;;;;;;;;;;;;;;5062547;28;19927;-62
2022/12/06 00:30:58;;;;;;;;;;;;;;;;;;5059702;28;20111;-62
2022/12/06 00:33:24;;;;;;;;;;;;;;;;;;5060058;28;20340;-62
2022/12/06 00:35:52;;;;;;;;;;;;;;;;;;5058904;28;19920;-62
2022/12/06 00:38:17;;;;;;;;;;;;;;;;;;5058009;28;19920;-61
2022/12/06 00:40:42;;;;;;;;;;;;;;;;;;5062505;28;20499;-61
2022/12/06 00:43:08;;;;;;;;;;;;;;;;;;4992811;28;19923;-61
2022/12/06 00:45:33;;;;;;;;;;;;;;;;;;4970950;28;19920;-61
2022/12/06 00:48:02;;;;;;;;;;;;;;;;;;5062926;28;19938;-61
2022/12/06 00:50:30;;;;;;;;;;;;;;;;;;5038553;28;20691;-60
2022/12/06 00:52:55;;;;;;;;;;;;;;;;;;5061737;28;20406;-60
2022/12/06 00:55:23;;;;;;;;;;;;;;;;;;5060841;28;19923;-61
2022/12/06 00:57:48;;;;;;;;;;;;;;;;;;5061457;28;19924;-61
2022/12/06 01:00:13;;;;;;;;;;;;;;;;;;5061043;28;20441;-62
2022/12/06 01:02:38;;;;;;;;;;;;;;;;;;4974748;28;19916;-62
2022/12/06 01:05:04;;;;;;;;;;;;;;;;;;4957773;28;19920;-62
2022/12/06 01:07:31;;;;;;;;;;;;;;;;;;5056557;28;20357;-63
2022/12/06 01:09:57;;;;;;;;;;;;;;;;;;4973527;28;19974;-62
2022/12/06 01:12:23;;;;;;;;;;;;;;;;;;5262809;23;21625;-62
2022/12/06 01:14:48;;;;;;;;;;;;;;;;;;5020590;28;20484;-62
2022/12/06 01:17:14;;;;;;;;;;;;;;;;;;5034122;28;20007;-62
2022/12/06 01:19:39;;;;;;;;;;;;;;;;;;5041522;28;19928;-61
2022/12/06 01:22:09;;;;;;;;;;;;;;;;;;5042498;28;19920;-62
2022/12/06 01:24:34;;;;;;;;;;;;;;;;;;5029572;28;19956;-62
2022/12/06 01:27:02;;;;;;;;;;;;;;;;;;5052720;28;19923;-62
2022/12/06 01:29:27;;;;;;;;;;;;;;;;;;5052893;28;19920;-61
2022/12/06 01:31:52;;;;;;;;;;;;;;;;;;5035114;28;19916;-61
2022/12/06 01:34:18;;;;;;;;;;;;;;;;;;5011453;28;19921;-62
2022/12/06 01:36:43;;;;;;;;;;;;;;;;;;5040574;28;19924;-62
2022/12/06 01:39:09;;;;;;;;;;;;;;;;;;5050704;28;19921;-62
2022/12/06 01:41:34;;;;;;;;;;;;;;;;;;5039188;28;19974;-62
2022/12/06 01:44:00;;;;;;;;;;;;;;;;;;5027443;28;19916;-61
2022/12/06 01:46:26;;;;;;;;;;;;;;;;;;5050600;28;19956;-62
2022/12/06 01:48:51;;;;;;;;;;;;;;;;;;5048351;28;19916;-62
2022/12/06 01:51:16;;;;;;;;;;;;;;;;;;5015861;28;19924;-62
2022/12/06 01:53:42;;;;;;;;;;;;;;;;;;5034141;28;19984;-62
2022/12/06 01:56:07;;;;;;;;;;;;;;;;;;5017097;28;20630;-62
2022/12/06 01:58:32;;;;;;;;;;;;;;;;;;5052411;28;20575;-61
2022/12/06 02:00:58;;;;;;;;;;;;;;;;;;5036297;28;20440;-62
2022/12/06 02:03:25;;;;;;;;;;;;;;;;;;5052507;28;19989;-62
2022/12/06 02:05:51;;;;;;;;;;;;;;;;;;5039393;28;20423;-61
2022/12/06 02:08:16;;;;;;;;;;;;;;;;;;5050975;28;19920;-62
2022/12/06 02:10:41;;;;;;;;;;;;;;;;;;5052334;28;20314;-62
2022/12/06 02:13:07;;;;;;;;;;;;;;;;;;5036448;28;20368;-62
2022/12/06 02:15:34;;;;;;;;;;;;;;;;;;5015006;28;19920;-62
2022/12/06 02:17:59;;;;;;;;;;;;;;;;;;5016854;28;19935;-62
2022/12/06 02:20:27;;;;;;;;;;;;;;;;;;5017937;28;20286;-62
2022/12/06 02:22:52;;;;;;;;;;;;;;;;;;5034674;28;19963;-64
2022/12/06 02:25:17;;;;;;;;;;;;;;;;;;5014448;28;20065;-62
2022/12/06 02:27:47;;;;;;;;;;;;;;;;;;5033143;28;19917;-62
2022/12/06 02:30:16;;;;;;;;;;;;;;;;;;5019227;28;20375;-62
2022/12/06 02:32:42;;;;;;;;;;;;;;;;;;5031696;28;20011;-61
2022/12/06 02:35:09;;;;;;;;;;;;;;;;;;5031663;28;20533;-62
2022/12/06 02:37:38;;;;;;;;;;;;;;;;;;5033199;28;19931;-62
2022/12/06 02:40:03;;;;;;;;;;;;;;;;;;5015193;28;20395;-62
2022/12/06 02:42:28;;;;;;;;;;;;;;;;;;5031572;28;19928;-62
2022/12/06 02:44:54;;;;;;;;;;;;;;;;;;5017878;28;20342;-63
2022/12/06 02:47:21;;;;;;;;;;;;;;;;;;5032866;28;19921;-62
2022/12/06 02:49:49;;;;;;;;;;;;;;;;;;4998030;28;19982;-62
2022/12/06 02:52:14;;;;;;;;;;;;;;;;;;5032999;28;19916;-62
2022/12/06 02:54:42;;;;;;;;;;;;;;;;;;5033436;28;19931;-62
2022/12/06 02:57:07;;;;;;;;;;;;;;;;;;5017355;28;19928;-62
2022/12/06 02:59:33;;;;;;;;;;;;;;;;;;5034905;28;20409;-63
2022/12/06 03:01:58;;;;;;;;;;;;;;;;;;5037386;28;19924;-62
2022/12/06 03:04:30;;;;;;;;;;;;;;;;;;5029329;28;20089;-62
2022/12/06 03:06:55;;;;;;;;;;;;;;;;;;5030225;28;19960;-62
2022/12/06 03:09:21;;;;;;;;;;;;;;;;;;5014814;28;20803;-62
2022/12/06 03:11:46;;;;;;;;;;;;;;;;;;5033788;28;19934;-62
2022/12/06 03:14:12;;;;;;;;;;;;;;;;;;5014074;28;19956;-62
2022/12/06 03:16:37;;;;;;;;;;;;;;;;;;5033588;28;19931;-62
2022/12/06 03:19:05;;;;;;;;;;;;;;;;;;5012244;28;20413;-62
2022/12/06 03:21:31;;;;;;;;;;;;;;;;;;5032737;28;19962;-62
2022/12/06 03:23:59;;;;;;;;;;;;;;;;;;5030173;28;19921;-62
2022/12/06 03:26:24;;;;;;;;;;;;;;;;;;5021358;28;20393;-62
2022/12/06 03:28:50;;;;;;;;;;;;;;;;;;5034586;28;19921;-62
2022/12/06 03:31:22;;;;;;;;;;;;;;;;;;5035733;28;19913;-62
2022/12/06 03:33:48;;;;;;;;;;;;;;;;;;5035365;28;20686;-62
2022/12/06 03:36:13;;;;;;;;;;;;;;;;;;5017111;28;19999;-62
2022/12/06 03:38:41;;;;;;;;;;;;;;;;;;5036441;28;19916;-62
2022/12/06 03:41:06;;;;;;;;;;;;;;;;;;5035576;28;19923;-62
2022/12/06 03:46:22;;;;;;;;;;;;;;;;;;5027988;28;20035;-62
2022/12/06 03:48:47;;;;;;;;;;;;;;;;;;5014113;28;19917;-62
2022/12/06 03:51:28;;;;;;;;;;;;;;;;;;5033389;28;19943;-62
2022/12/06 03:53:53;;;;;;;;;;;;;;;;;;5014296;28;19920;-62
2022/12/06 03:56:30;;;;;;;;;;;;;;;;;;5022743;28;20352;-62
2022/12/06 03:58:56;;;;;;;;;;;;;;;;;;5017812;28;19920;-62
2022/12/06 04:01:21;;;;;;;;;;;;;;;;;;5015397;28;21100;-62
2022/12/06 04:03:49;;;;;;;;;;;;;;;;;;5036528;28;19912;-62
2022/12/06 04:06:15;;;;;;;;;;;;;;;;;;5016996;28;19920;-62
2022/12/06 04:08:40;;;;;;;;;;;;;;;;;;5033595;28;19947;-62
2022/12/06 04:11:05;;;;;;;;;;;;;;;;;;5035176;28;20018;-62
2022/12/06 04:13:34;;;;;;;;;;;;;;;;;;5012337;28;20672;-62
2022/12/06 04:18:09;;;;;;;;;;;;;;;;;;5016969;28;19948;-62
2022/12/06 04:18:47;;;;;;;;;;;;;;;;;;5036380;28;20380;-62
2022/12/06 04:23:58;;;;;;;;;;;;;;;;;;5005928;28;19928;-62
2022/12/06 04:26:23;;;;;;;;;;;;;;;;;;5024510;28;19917;-62
2022/12/06 04:39:49;;;;;;;;;;;;;;;;;;5039452;28;19917;-62
2022/12/06 04:45:00;;;;;;;;;;;;;;;;;;5038151;28;19916;-62
2022/12/06 04:47:25;;;;;;;;;;;;;;;;;;5013985;28;20003;-62
2022/12/06 04:49:51;;;;;;;;;;;;;;;;;;5035118;28;19921;-62
2022/12/06 04:52:16;;;;;;;;;;;;;;;;;;5040227;28;20203;-61
2022/12/06 04:54:41;;;;;;;;;;;;;;;;;;5022766;28;19924;-61
2022/12/06 04:57:09;;;;;;;;;;;;;;;;;;5061463;28;20027;-61
2022/12/06 04:59:53;;;;;;;;;;;;;;;;;;5057693;28;19918;-61
2022/12/06 05:02:21;;;;;;;;;;;;;;;;;;5062383;28;20615;-61
2022/12/06 05:04:49;;;;;;;;;;;;;;;;;;5042866;28;19940;-62
2022/12/06 05:07:15;;;;;;;;;;;;;;;;;;5041977;28;20380;-62
2022/12/06 05:09:43;;;;;;;;;;;;;;;;;;5060596;28;20197;-62
2022/12/06 05:12:12;;;;;;;;;;;;;;;;;;5046563;28;20647;-62
2022/12/06 05:14:38;;;;;;;;;;;;;;;;;;5060885;28;19928;-61
2022/12/06 05:17:05;;;;;;;;;;;;;;;;;;5061313;28;19928;-62
2022/12/06 05:19:36;;;;;;;;;;;;;;;;;;5060649;28;19928;-61
2022/12/06 05:22:01;;;;;;;;;;;;;;;;;;5062843;28;20034;-61
2022/12/06 05:24:29;;;;;;;;;;;;;;;;;;5059671;28;19916;-63
2022/12/06 05:26:57;;;;;;;;;;;;;;;;;;5056935;28;20317;-63
2022/12/06 05:29:22;;;;;;;;;;;;;;;;;;5059712;28;19952;-61
2022/12/06 05:31:47;;;;;;;;;;;;;;;;;;5062047;28;19924;-63
2022/12/06 05:34:13;;;;;;;;;;;;;;;;;;5020954;28;19953;-62
2022/12/06 05:36:43;;;;;;;;;;;;;;;;;;5059088;28;19924;-62
2022/12/06 05:39:08;;;;;;;;;;;;;;;;;;5061318;28;19946;-62
2022/12/06 05:44:52;;;;;;;;;;;;;;;;;;5038029;28;20395;-62
2022/12/06 05:47:18;;;;;;;;;;;;;;;;;;5058421;28;19916;-62
2022/12/06 05:49:44;;;;;;;;;;;;;;;;;;5043323;28;20400;-63
2022/12/06 05:52:09;;;;;;;;;;;;;;;;;;5057228;28;20076;-61
2022/12/06 06:01:08;;;;;;;;;;;;;;;;;;5058603;28;19927;-62
2022/12/06 06:03:34;;;;;;;;;;;;;;;;;;5056332;28;21402;-62
2022/12/06 06:05:59;;;;;;;;;;;;;;;;;;5024423;28;19916;-62
2022/12/06 06:08:27;;;;;;;;;;;;;;;;;;5057451;28;20379;-63
2022/12/06 06:10:55;;;;;;;;;;;;;;;;;;5036565;28;20133;-62
2022/12/06 06:13:21;;;;;;;;;;;;;;;;;;5044328;28;20021;-62
2022/12/06 06:15:46;;;;;;;;;;;;;;;;;;5039234;28;20006;-62
2022/12/06 06:18:11;;;;;;;;;;;;;;;;;;5037505;28;19973;-63
2022/12/06 06:20:36;;;;;;;;;;;;;;;;;;5024949;28;20271;-62
2022/12/06 06:23:04;;;;;;;;;;;;;;;;;;5057077;28;19931;-62
2022/12/06 06:25:32;;;;;;;;;;;;;;;;;;5059663;28;19916;-62
2022/12/06 06:27:59;;;;;;;;;;;;;;;;;;5054373;28;20420;-62
2022/12/06 06:30:27;;;;;;;;;;;;;;;;;;5041319;28;19924;-62
2022/12/06 06:32:52;;;;;;;;;;;;;;;;;;5056869;28;20957;-62
2022/12/06 06:35:18;;;;;;;;;;;;;;;;;;5054964;28;19924;-63
2022/12/06 06:37:47;;;;;;;;;;;;;;;;;;5043198;28;19977;-63
2022/12/06 06:40:14;;;;;;;;;;;;;;;;;;5030295;28;19916;-63
2022/12/06 06:42:40;;;;;;;;;;;;;;;;;;5059679;28;20257;-63
2022/12/06 06:45:05;;;;;;;;;;;;;;;;;;5055749;28;19928;-62
2022/12/06 06:47:31;;;;;;;;;;;;;;;;;;5040323;28;20093;-63
2022/12/06 06:49:59;;;;;;;;;;;;;;;;;;5058948;28;19963;-63
2022/12/06 06:52:24;;;;;;;;;;;;;;;;;;5007324;28;20399;-63
2022/12/06 06:54:49;;;;;;;;;;;;;;;;;;5022465;28;19924;-63
2022/12/06 06:57:14;;;;;;;;;;;;;;;;;;5052504;28;19931;-63
2022/12/06 06:59:42;;;;;;;;;;;;;;;;;;5036957;28;19924;-63
2022/12/06 07:02:10;;;;;;;;;;;;;;;;;;5056971;28;20279;-63
2022/12/06 07:04:35;;;;;;;;;;;;;;;;;;5056011;28;19916;-63
2022/12/06 07:07:00;;;;;;;;;;;;;;;;;;5056967;28;19916;-63
2022/12/06 07:09:27;;;;;;;;;;;;;;;;;;5056556;28;19916;-64
2022/12/06 07:11:52;;;;;;;;;;;;;;;;;;5056849;28;20221;-63
2022/12/06 07:14:18;;;;;;;;;;;;;;;;;;5055943;28;20288;-63
2022/12/06 07:16:43;;;;;;;;;;;;;;;;;;5040458;28;19990;-62
2022/12/06 07:19:08;;;;;;;;;;;;;;;;;;5034419;28;20464;-63
2022/12/06 07:21:43;;;;;;;;;;;;;;;;;;5033829;28;19922;-63
2022/12/06 07:24:09;;;;;;;;;;;;;;;;;;5044096;28;19996;-63
2022/12/06 07:26:34;;;;;;;;;;;;;;;;;;5038159;28;20430;-63
2022/12/06 07:29:00;;;;;;;;;;;;;;;;;;5037824;28;20015;-63
2022/12/06 07:31:25;;;;;;;;;;;;;;;;;;5040859;28;19973;-63
2022/12/06 07:33:50;;;;;;;;;;;;;;;;;;5054931;28;19924;-63
2022/12/06 07:36:16;;;;;;;;;;;;;;;;;;5057782;28;19924;-63
2022/12/06 07:38:43;;;;;;;;;;;;;;;;;;5053408;28;20284;-62
2022/12/06 07:46:37;;;;;;;;;;;;;;;;;;5053792;28;19920;-61
2022/12/06 07:49:02;;;;;;;;;;;;;;;;;;5054373;28;19923;-61
2022/12/06 07:51:30;;;;;;;;;;;;;;;;;;5034998;28;20386;-62
2022/12/06 07:53:56;;;;;;;;;;;;;;;;;;5036390;28;19926;-62
2022/12/06 07:56:21;;;;;;;;;;;;;;;;;;5036444;28;19924;-62
2022/12/06 07:58:49;;;;;;;;;;;;;;;;;;5040309;28;20135;-62
2022/12/06 08:01:14;;;;;;;;;;;;;;;;;;5057534;28;20473;-62
2022/12/06 08:03:40;;;;;;;;;;;;;;;;;;5054848;28;20007;-62
2022/12/06 08:06:05;;;;;;;;;;;;;;;;;;5038528;28;19928;-61
2022/12/06 08:08:31;;;;;;;;;;;;;;;;;;5054697;28;19916;-62
2022/12/06 08:10:59;;;;;;;;;;;;;;;;;;5057935;28;19924;-62
2022/12/06 08:13:26;;;;;;;;;;;;;;;;;;5060754;28;21384;-62
2022/12/06 08:15:52;;;;;;;;;;;;;;;;;;5043587;28;19927;-62
2022/12/06 08:18:17;;;;;;;;;;;;;;;;;;5060479;28;19983;-63
2022/12/06 08:20:43;;;;;;;;;;;;;;;;;;5060398;28;20177;-62
2022/12/06 08:23:08;;;;;;;;;;;;;;;;;;5059038;28;19920;-65
2022/12/06 08:25:36;;;;;;;;;;;;;;;;;;5043707;28;19922;-62
2022/12/06 08:28:04;;;;;;;;;;;;;;;;;;5046322;28;19916;-62
2022/12/06 08:30:29;;;;;;;;;;;;;;;;;;5056601;28;19961;-62
2022/12/06 08:32:57;;;;;;;;;;;;;;;;;;5042022;28;20088;-63
2022/12/06 08:35:25;;;;;;;;;;;;;;;;;;5043475;28;19920;-63
2022/12/06 08:37:50;;;;;;;;;;;;;;;;;;5045886;28;19924;-62
2022/12/06 08:40:15;;;;;;;;;;;;;;;;;;5057324;28;20586;-64
2022/12/06 08:42:42;;;;;;;;;;;;;;;;;;5061226;28;19920;-62
2022/12/06 08:45:07;;;;;;;;;;;;;;;;;;5038976;28;19916;-63
2022/12/06 08:47:35;;;;;;;;;;;;;;;;;;5059115;28;19920;-63
2022/12/06 08:50:01;;;;;;;;;;;;;;;;;;5059080;28;20362;-63
2022/12/06 08:52:29;;;;;;;;;;;;;;;;;;5038380;28;20003;-63
2022/12/06 08:54:57;;;;;;;;;;;;;;;;;;5060069;28;20320;-63
2022/12/06 08:57:22;;;;;;;;;;;;;;;;;;5038979;28;19991;-63
2022/12/06 08:59:47;;;;;;;;;;;;;;;;;;5059040;28;19932;-63
2022/12/06 09:02:13;;;;;;;;;;;;;;;;;;5044891;28;20628;-62
2022/12/06 09:04:38;;;;;;;;;;;;;;;;;;5041647;28;19920;-64
2022/12/06 09:07:03;;;;;;;;;;;;;;;;;;5043430;28;19959;-63
2022/12/06 09:09:29;;;;;;;;;;;;;;;;;;5059416;28;19934;-63
2022/12/06 09:11:57;;;;;;;;;;;;;;;;;;5034159;28;19932;-64
2022/12/06 09:14:22;;;;;;;;;;;;;;;;;;5007002;28;20399;-64
2022/12/06 09:16:48;;;;;;;;;;;;;;;;;;5020435;28;19925;-63
2022/12/06 09:19:13;;;;;;;;;;;;;;;;;;4986736;28;19920;-62
2022/12/06 09:21:39;;;;;;;;;;;;;;;;;;5019453;28;20359;-63
2022/12/06 09:24:04;;;;;;;;;;;;;;;;;;5021016;28;20030;-63
2022/12/06 09:26:29;;;;;;;;;;;;;;;;;;4987046;28;20390;-63
2022/12/06 09:28:55;;;;;;;;;;;;;;;;;;5020236;28;20017;-62
2022/12/06 09:31:20;;;;;;;;;;;;;;;;;;5019771;28;20632;-63
2022/12/06 09:33:46;;;;;;;;;;;;;;;;;;4999662;28;20556;-63
2022/12/06 09:36:20;;;;;;;;;;;;;;;;;;5000149;28;19922;-64
2022/12/06 09:38:46;;;;;;;;;;;;;;;;;;5019817;28;19990;-67
2022/12/06 09:41:14;;;;;;;;;;;;;;;;;;5006672;28;20389;-64
2022/12/06 09:43:39;;;;;;;;;;;;;;;;;;5007423;28;20281;-66
2022/12/06 09:46:07;;;;;;;;;;;;;;;;;;5003975;28;20229;-66
2022/12/06 09:48:35;;;;;;;;;;;;;;;;;;5005152;28;20474;-63
2022/12/06 09:51:00;;;;;;;;;;;;;;;;;;4986409;28;20019;-63
2022/12/06 09:53:28;;;;;;;;;;;;;;;;;;4988171;28;19920;-62
2022/12/06 09:55:53;;;;;;;;;;;;;;;;;;5017379;28;20441;-63
2022/12/06 09:58:18;;;;;;;;;;;;;;;;;;5020493;28;20205;-63
2022/12/06 10:00:44;;;;;;;;;;;;;;;;;;5002527;28;20439;-63
2022/12/06 10:03:09;;;;;;;;;;;;;;;;;;5019098;28;20281;-62
2022/12/06 10:05:35;;;;;;;;;;;;;;;;;;5021245;28;19928;-62
2022/12/06 10:08:00;;;;;;;;;;;;;;;;;;5016384;28;19921;-63
2022/12/06 10:10:28;;;;;;;;;;;;;;;;;;5001452;28;20065;-62
2022/12/06 10:12:55;;;;;;;;;;;;;;;;;;5031626;28;21534;-61
2022/12/06 10:15:21;;;;;;;;;;;;;;;;;;5016871;28;19955;-61
2022/12/06 10:17:48;;;;;;;;;;;;;;;;;;5037714;28;19947;-62
2022/12/06 10:20:13;;;;;;;;;;;;;;;;;;5021571;28;20447;-63
2022/12/06 10:22:39;;;;;;;;;;;;;;;;;;5037177;28;19917;-61
2022/12/06 10:25:04;;;;;;;;;;;;;;;;;;5016950;28;20152;-61
2022/12/06 10:27:35;;;;;;;;;;;;;;;;;;5039069;28;20504;-62
2022/12/06 10:30:03;;;;;;;;;;;;;;;;;;5037665;28;19921;-61
2022/12/06 10:32:28;;;;;;;;;;;;;;;;;;5022885;28;20306;-62
2022/12/06 10:34:54;;;;;;;;;;;;;;;;;;5032466;28;20056;-61
2022/12/06 10:37:19;;;;;;;;;;;;;;;;;;5038047;28;19924;-62
2022/12/06 10:39:45;;;;;;;;;;;;;;;;;;5017633;28;21423;-61
2022/12/06 10:42:13;;;;;;;;;;;;;;;;;;5036370;28;19924;-60
2022/12/06 10:44:38;;;;;;;;;;;;;;;;;;5023698;28;19955;-61
2022/12/06 10:47:06;;;;;;;;;;;;;;;;;;5039805;28;20303;-61
2022/12/06 10:49:32;;;;;;;;;;;;;;;;;;5037492;28;20042;-60
2022/12/06 10:51:57;;;;;;;;;;;;;;;;;;5019364;28;20074;-60
2022/12/06 10:54:22;;;;;;;;;;;;;;;;;;5036408;28;19936;-60
2022/12/06 10:56:47;;;;;;;;;;;;;;;;;;5040866;28;19924;-60
2022/12/06 10:59:13;;;;;;;;;;;;;;;;;;5035978;28;19921;-61
2022/12/06 11:01:40;;;;;;;;;;;;;;;;;;5039786;28;19916;-61
2022/12/06 11:04:08;;;;;;;;;;;;;;;;;;5037727;28;19920;-60
2022/12/06 11:06:36;;;;;;;;;;;;;;;;;;5037777;28;20335;-61
2022/12/06 11:09:01;;;;;;;;;;;;;;;;;;5038449;28;19917;-63
2022/12/06 11:11:27;;;;;;;;;;;;;;;;;;5037579;28;20322;-61
2022/12/06 11:13:52;;;;;;;;;;;;;;;;;;5041710;28;20878;-61
2022/12/06 11:16:18;;;;;;;;;;;;;;;;;;5022172;28;19934;-59
2022/12/06 11:18:44;;;;;;;;;;;;;;;;;;5032534;28;19936;-60
2022/12/06 11:21:11;;;;;;;;;;;;;;;;;;5016786;28;20021;-60
2022/12/06 11:23:38;;;;;;;;;;;;;;;;;;5021190;28;19954;-59
2022/12/06 11:26:03;;;;;;;;;;;;;;;;;;5024870;28;19921;-60
2022/12/06 11:28:31;;;;;;;;;;;;;;;;;;5037320;28;20277;-59
2022/12/06 11:30:56;;;;;;;;;;;;;;;;;;5031539;28;20443;-60
2022/12/06 11:33:22;;;;;;;;;;;;;;;;;;5035152;28;20011;-59
2022/12/06 11:35:47;;;;;;;;;;;;;;;;;;5033462;28;20152;-59
2022/12/06 11:38:15;;;;;;;;;;;;;;;;;;5032798;28;19928;-59
2022/12/06 11:40:41;;;;;;;;;;;;;;;;;;5037135;28;19926;-59
2022/12/06 11:43:09;;;;;;;;;;;;;;;;;;5033182;28;19920;-59
2022/12/06 11:45:37;;;;;;;;;;;;;;;;;;5036376;28;19916;-59
2022/12/06 11:48:02;;;;;;;;;;;;;;;;;;5041051;28;19925;-59
2022/12/06 11:50:27;;;;;;;;;;;;;;;;;;5025404;28;19917;-59
2022/12/06 11:52:53;;;;;;;;;;;;;;;;;;5037119;28;19935;-59
2022/12/06 11:55:20;;;;;;;;;;;;;;;;;;5038991;28;20164;-59
2022/12/06 11:57:46;;;;;;;;;;;;;;;;;;5023761;28;19975;-60
2022/12/06 12:00:12;;;;;;;;;;;;;;;;;;5037641;28;19921;-57
2022/12/06 12:02:37;;;;;;;;;;;;;;;;;;5041142;28;19927;-59
2022/12/06 12:05:07;;;;;;;;;;;;;;;;;;5037099;28;19916;-59
2022/12/06 12:07:32;;;;;;;;;;;;;;;;;;5037999;28;20527;-57
2022/12/06 12:09:58;;;;;;;;;;;;;;;;;;5030247;28;19928;-57
2022/12/06 12:12:23;;;;;;;;;;;;;;;;;;5038272;28;19921;-58
2022/12/06 12:14:49;;;;;;;;;;;;;;;;;;5039043;28;20194;-60
2022/12/06 12:17:15;;;;;;;;;;;;;;;;;;5039991;28;19924;-58
2022/12/06 12:19:40;;;;;;;;;;;;;;;;;;5038679;28;20205;-57
2022/12/06 12:22:08;;;;;;;;;;;;;;;;;;5020795;28;20585;-60
2022/12/06 12:24:33;;;;;;;;;;;;;;;;;;5020071;28;20039;-58
2022/12/06 12:27:00;;;;;;;;;;;;;;;;;;5019729;28;19921;-58
2022/12/06 12:29:25;;;;;;;;;;;;;;;;;;5039796;28;20341;-58
2022/12/06 12:31:51;;;;;;;;;;;;;;;;;;5040512;28;19920;-58
2022/12/06 12:34:19;;;;;;;;;;;;;;;;;;5039955;28;19921;-58
2022/12/06 12:36:45;;;;;;;;;;;;;;;;;;5039931;28;20027;-59
2022/12/06 12:39:13;;;;;;;;;;;;;;;;;;5039472;28;19920;-58
2022/12/06 12:41:40;;;;;;;;;;;;;;;;;;5040358;28;19921;-58
2022/12/06 12:44:05;;;;;;;;;;;;;;;;;;5040612;28;19939;-58
2022/12/06 12:46:31;;;;;;;;;;;;;;;;;;5037232;28;19924;-58
2022/12/06 12:48:56;;;;;;;;;;;;;;;;;;5040670;28;20385;-59
2022/12/06 12:51:24;;;;;;;;;;;;;;;;;;5025304;28;20311;-59
2022/12/06 12:53:52;;;;;;;;;;;;;;;;;;5021829;28;19917;-58
2022/12/06 12:56:20;;;;;;;;;;;;;;;;;;5038580;28;20698;-59
2022/12/06 12:58:45;;;;;;;;;;;;;;;;;;5034448;28;20005;-58
2022/12/06 13:01:13;;;;;;;;;;;;;;;;;;5035283;28;19931;-59
2022/12/06 13:03:38;;;;;;;;;;;;;;;;;;5040768;28;20318;-58
2022/12/06 13:06:05;;;;;;;;;;;;;;;;;;5038562;28;19916;-59
2022/12/06 13:08:33;;;;;;;;;;;;;;;;;;5038323;28;19920;-59
2022/12/06 13:10:59;;;;;;;;;;;;;;;;;;5036697;28;19967;-60
2022/12/06 13:13:24;;;;;;;;;;;;;;;;;;5019021;28;20009;-59
2022/12/06 13:15:49;;;;;;;;;;;;;;;;;;5019341;28;19950;-59
2022/12/06 13:18:17;;;;;;;;;;;;;;;;;;5037590;28;19920;-59
2022/12/06 13:20:42;;;;;;;;;;;;;;;;;;5040385;28;19967;-59
2022/12/06 13:23:10;;;;;;;;;;;;;;;;;;5020119;28;19924;-61
2022/12/06 13:25:36;;;;;;;;;;;;;;;;;;5035985;28;20103;-59
2022/12/06 13:28:03;;;;;;;;;;;;;;;;;;5039258;28;19917;-59
2022/12/06 13:30:29;;;;;;;;;;;;;;;;;;5035027;28;19920;-59
2022/12/06 13:32:54;;;;;;;;;;;;;;;;;;5024173;28;19917;-60
2022/12/06 13:35:20;;;;;;;;;;;;;;;;;;5016454;28;19920;-60
2022/12/06 13:37:46;;;;;;;;;;;;;;;;;;5035132;28;19996;-61
2022/12/06 13:40:13;;;;;;;;;;;;;;;;;;5032122;28;19917;-61
2022/12/06 13:42:41;;;;;;;;;;;;;;;;;;5035622;28;20440;-59
2022/12/06 13:45:08;;;;;;;;;;;;;;;;;;5010179;28;19922;-59
2022/12/06 13:47:36;;;;;;;;;;;;;;;;;;5017438;28;20323;-59
2022/12/06 13:50:04;;;;;;;;;;;;;;;;;;5030960;28;19920;-60
2022/12/06 13:52:30;;;;;;;;;;;;;;;;;;5035384;28;20011;-60
2022/12/06 13:54:55;;;;;;;;;;;;;;;;;;5036575;28;20322;-60
2022/12/06 13:57:21;;;;;;;;;;;;;;;;;;5026068;28;19924;-60
2022/12/06 13:59:46;;;;;;;;;;;;;;;;;;5034714;28;20410;-60
2022/12/06 14:02:14;;;;;;;;;;;;;;;;;;5034642;28;19920;-60
2022/12/06 14:04:42;;;;;;;;;;;;;;;;;;5034418;28;19921;-60
2022/12/06 14:07:08;;;;;;;;;;;;;;;;;;5034187;28;20989;-60
2022/12/06 14:09:34;;;;;;;;;;;;;;;;;;5035185;28;20017;-60
2022/12/06 14:12:03;;;;;;;;;;;;;;;;;;4970996;28;19917;-61
2022/12/06 14:14:29;;;;;;;;;;;;;;;;;;5009524;28;20464;-60
2022/12/06 14:16:54;;;;;;;;;;;;;;;;;;5009491;28;19994;-60
2022/12/06 14:19:20;;;;;;;;;;;;;;;;;;5012134;28;21735;-60
2022/12/06 14:21:45;;;;;;;;;;;;;;;;;;5013701;28;19964;-60
2022/12/06 14:24:11;;;;;;;;;;;;;;;;;;5031639;28;20407;-60
2022/12/06 14:26:36;;;;;;;;;;;;;;;;;;5030673;28;19920;-61
2022/12/06 14:29:06;;;;;;;;;;;;;;;;;;5035288;28;19919;-60
2022/12/06 14:31:34;;;;;;;;;;;;;;;;;;5031455;28;19932;-60
2022/12/06 14:34:00;;;;;;;;;;;;;;;;;;5017197;28;20059;-60
2022/12/06 14:36:30;;;;;;;;;;;;;;;;;;5010499;28;19920;-61
2022/12/06 14:38:55;;;;;;;;;;;;;;;;;;5019966;28;20014;-61
2022/12/06 14:44:05;;;;;;;;;;;;;;;;;;5034576;28;20007;-62
2022/12/06 14:46:32;;;;;;;;;;;;;;;;;;5035880;28;19917;-61
2022/12/06 14:51:45;;;;;;;;;;;;;;;;;;5016281;28;20089;-61
2022/12/06 14:54:11;;;;;;;;;;;;;;;;;;5034892;28;20361;-60
2022/12/06 14:56:36;;;;;;;;;;;;;;;;;;5016861;28;19981;-62
2022/12/06 14:59:01;;;;;;;;;;;;;;;;;;5015591;28;19929;-61
2022/12/06 15:01:27;;;;;;;;;;;;;;;;;;5031791;28;20500;-61
2022/12/06 15:03:52;;;;;;;;;;;;;;;;;;4999262;28;19924;-61
2022/12/06 15:06:20;;;;;;;;;;;;;;;;;;5032993;28;19939;-61
2022/12/06 15:08:45;;;;;;;;;;;;;;;;;;5035150;28;19940;-61
2022/12/06 15:11:11;;;;;;;;;;;;;;;;;;5016925;28;19920;-61
2022/12/06 15:13:36;;;;;;;;;;;;;;;;;;5015835;28;20037;-61
2022/12/06 15:16:01;;;;;;;;;;;;;;;;;;4999927;28;20070;-61
2022/12/06 15:18:27;;;;;;;;;;;;;;;;;;5034240;28;19932;-62
2022/12/06 15:20:52;;;;;;;;;;;;;;;;;;5013751;28;19939;-62
2022/12/06 15:23:18;;;;;;;;;;;;;;;;;;5034513;28;19921;-62
2022/12/06 15:25:45;;;;;;;;;;;;;;;;;;5035876;28;20374;-62
2022/12/06 15:28:11;;;;;;;;;;;;;;;;;;5013236;28;20383;-62
2022/12/06 15:30:36;;;;;;;;;;;;;;;;;;5015459;28;19920;-62
2022/12/06 15:33:01;;;;;;;;;;;;;;;;;;5010736;28;19920;-62
2022/12/06 15:35:27;;;;;;;;;;;;;;;;;;5000909;28;19943;-62
2022/12/06 15:37:54;;;;;;;;;;;;;;;;;;5024837;28;20060;-62
2022/12/06 15:40:22;;;;;;;;;;;;;;;;;;5029803;28;19925;-63
2022/12/06 15:42:47;;;;;;;;;;;;;;;;;;5010900;28;20026;-63
2022/12/06 15:45:13;;;;;;;;;;;;;;;;;;5026900;28;19924;-63
2022/12/06 15:47:38;;;;;;;;;;;;;;;;;;5029959;28;20600;-62
2022/12/06 15:50:03;;;;;;;;;;;;;;;;;;5026909;28;20557;-62
2022/12/06 15:52:29;;;;;;;;;;;;;;;;;;5018122;28;19989;-63
2022/12/06 15:54:57;;;;;;;;;;;;;;;;;;5031307;28;19923;-63
2022/12/06 15:57:22;;;;;;;;;;;;;;;;;;5030499;28;20322;-63
2022/12/06 15:59:47;;;;;;;;;;;;;;;;;;5015130;28;20378;-63
2022/12/06 16:02:14;;;;;;;;;;;;;;;;;;5030442;28;20056;-63
2022/12/06 16:04:40;;;;;;;;;;;;;;;;;;5034353;28;19928;-63
2022/12/06 16:07:06;;;;;;;;;;;;;;;;;;5021351;28;19920;-63
2022/12/06 16:09:32;;;;;;;;;;;;;;;;;;5033446;28;19927;-63
2022/12/06 16:11:58;;;;;;;;;;;;;;;;;;5037407;28;19928;-63
2022/12/06 16:14:25;;;;;;;;;;;;;;;;;;5035601;28;20399;-62
2022/12/06 16:16:53;;;;;;;;;;;;;;;;;;5016748;28;19917;-62
2022/12/06 16:19:19;;;;;;;;;;;;;;;;;;5034713;28;20893;-62
2022/12/06 16:21:49;;;;;;;;;;;;;;;;;;4991451;28;19917;-62
2022/12/06 16:24:14;;;;;;;;;;;;;;;;;;5017899;28;19920;-63
2022/12/06 16:26:43;;;;;;;;;;;;;;;;;;5013394;28;20038;-63
2022/12/06 16:29:13;;;;;;;;;;;;;;;;;;5014388;28;19924;-63
2022/12/06 16:31:41;;;;;;;;;;;;;;;;;;5015744;28;19928;-61
2022/12/06 16:34:08;;;;;;;;;;;;;;;;;;5037747;28;20965;-61
2022/12/06 16:36:34;;;;;;;;;;;;;;;;;;5035948;28;19974;-62
2022/12/06 16:39:00;;;;;;;;;;;;;;;;;;5038619;28;19925;-62
2022/12/06 16:41:27;;;;;;;;;;;;;;;;;;5040267;28;20003;-62
2022/12/06 16:43:54;;;;;;;;;;;;;;;;;;5021615;28;20093;-62
2022/12/06 16:46:20;;;;;;;;;;;;;;;;;;5017428;28;20337;-62
2022/12/06 16:48:46;;;;;;;;;;;;;;;;;;5019310;28;19956;-61
2022/12/06 16:51:12;;;;;;;;;;;;;;;;;;5013607;28;20048;-61
2022/12/06 16:53:37;;;;;;;;;;;;;;;;;;5015506;28;19921;-61
2022/12/06 16:56:02;;;;;;;;;;;;;;;;;;5000910;28;20015;-61
2022/12/06 16:58:28;;;;;;;;;;;;;;;;;;5035141;28;19935;-63
2022/12/06 17:00:55;;;;;;;;;;;;;;;;;;5021754;28;19975;-62
2022/12/06 17:03:23;;;;;;;;;;;;;;;;;;5024884;28;20408;-62
2022/12/06 17:05:51;;;;;;;;;;;;;;;;;;5022218;28;19963;-62
2022/12/06 17:08:18;;;;;;;;;;;;;;;;;;5019650;28;19916;-62
2022/12/06 17:10:46;;;;;;;;;;;;;;;;;;5031521;28;19920;-61
2022/12/06 17:13:14;;;;;;;;;;;;;;;;;;5019136;28;19927;-62
2022/12/06 17:15:44;;;;;;;;;;;;;;;;;;5017980;28;19928;-62
2022/12/06 17:18:09;;;;;;;;;;;;;;;;;;5019083;28;19928;-61
2022/12/06 17:20:35;;;;;;;;;;;;;;;;;;5011447;28;19928;-62